createdAt,value
2022-12-09T00:00:13.823Z,32.93
2022-12-09T00:02:40.861Z,36.43
2022-12-09T00:05:07.997Z,42.83
2022-12-09T00:07:36.552Z,30.97
2022-12-09T00:10:05.028Z,33.70
2022-12-09T00:12:31.857Z,32.57
2022-12-09T00:14:58.393Z,29.37
2022-12-09T00:17:25.177Z,35.60
2022-12-09T00:19:52.172Z,39.50
2022-12-09T00:22:18.722Z,30.90
2022-12-09T00:24:45.674Z,34.90
2022-12-09T00:27:12.197Z,33.67
2022-12-09T00:29:38.742Z,36.30
2022-12-09T00:32:05.657Z,38.90
2022-12-09T00:34:32.481Z,36.13
2022-12-09T00:36:59.091Z,34.20
2022-12-09T00:39:26.027Z,34.10
2022-12-09T00:41:52.924Z,36.90
2022-12-09T00:44:19.454Z,38.90
2022-12-09T00:46:46.159Z,34.70
2022-12-09T00:49:12.843Z,34.60
2022-12-09T00:51:39.642Z,34.90
2022-12-09T00:54:06.309Z,32.20
2022-12-09T00:56:33.251Z,35.90
2022-12-09T00:58:59.883Z,34.60
2022-12-09T01:01:27.619Z,34.73
2022-12-09T01:03:54.544Z,34.83
2022-12-09T01:06:22.795Z,41.37
2022-12-09T01:08:49.421Z,34.70
2022-12-09T01:11:22.121Z,40.17
2022-12-09T01:13:49.418Z,34.27
2022-12-09T01:16:21.324Z,43.33
2022-12-09T01:18:48.760Z,37.70
2022-12-09T01:21:15.458Z,30.67
2022-12-09T01:23:42.537Z,38.37
2022-12-09T01:26:09.803Z,40.37
2022-12-09T01:28:37.783Z,42.83
2022-12-09T01:31:14.083Z,39.10
2022-12-09T01:33:41.967Z,35.43
2022-12-09T01:36:15.637Z,35.23
2022-12-09T01:38:42.502Z,35.13
2022-12-09T01:41:09.462Z,35.20
2022-12-09T01:43:37.766Z,33.83
2022-12-09T01:46:04.926Z,38.17
2022-12-09T01:48:34.364Z,33.77
2022-12-09T01:51:04.662Z,34.20
2022-12-09T01:53:35.585Z,34.43
2022-12-09T01:56:06.591Z,35.90
2022-12-09T01:58:33.219Z,32.97
2022-12-09T02:00:59.974Z,34.40
2022-12-09T02:03:27.001Z,33.67
2022-12-09T02:05:54.216Z,31.87
2022-12-09T02:08:21.239Z,34.27
2022-12-09T02:11:05.550Z,33.27
2022-12-09T02:13:45.556Z,31.70
2022-12-09T02:16:16.415Z,34.63
2022-12-09T02:19:22.801Z,33.57
2022-12-09T02:21:57.616Z,36.07
2022-12-09T02:24:50.478Z,35.53
2022-12-09T02:27:20.658Z,35.43
2022-12-09T02:30:08.752Z,37.40
2022-12-09T02:32:53.837Z,32.60
2022-12-09T02:35:25.219Z,39.07
2022-12-09T02:37:57.112Z,31.30
2022-12-09T02:40:31.375Z,32.93
2022-12-09T02:42:58.839Z,35.13
2022-12-09T02:45:27.049Z,31.33
2022-12-09T02:47:54.537Z,34.60
2022-12-09T02:50:26.052Z,33.23
2022-12-09T02:52:53.505Z,39.53
2022-12-09T02:55:21.222Z,43.27
2022-12-09T02:57:49.941Z,33.67
2022-12-09T03:00:17.031Z,32.87
2022-12-09T03:02:46.709Z,34.07
2022-12-09T03:05:25.625Z,36.90
2022-12-09T03:08:14.251Z,33.40
2022-12-09T03:11:10.625Z,36.50
2022-12-09T03:13:46.188Z,35.03
2022-12-09T03:16:35.792Z,36.87
2022-12-09T03:19:19.294Z,35.17
2022-12-09T03:21:50.324Z,34.40
2022-12-09T03:24:21.610Z,41.33
2022-12-09T03:26:49.120Z,38.50
2022-12-09T03:29:18.345Z,33.33
2022-12-09T03:31:46.642Z,38.63
2022-12-09T03:34:19.603Z,37.43
2022-12-09T03:36:48.589Z,37.77
2022-12-09T03:39:18.639Z,35.70
2022-12-09T03:41:48.232Z,35.97
2022-12-09T03:44:32.462Z,35.77
2022-12-09T03:47:00.179Z,30.17
2022-12-09T03:49:27.066Z,35.00
2022-12-09T03:52:05.200Z,30.13
2022-12-09T03:54:41.420Z,33.03
2022-12-09T03:57:15.483Z,33.10
2022-12-09T03:59:50.323Z,32.37
2022-12-09T04:02:17.383Z,35.40
2022-12-09T04:04:44.447Z,34.20
2022-12-09T04:07:11.496Z,36.33
2022-12-09T04:09:38.132Z,36.27
2022-12-09T04:12:05.557Z,37.80
2022-12-09T04:14:32.320Z,34.63
2022-12-09T04:16:58.914Z,31.13
2022-12-09T04:19:25.587Z,33.20
2022-12-09T04:21:52.158Z,30.23
2022-12-09T04:24:18.989Z,31.80
2022-12-09T04:26:45.822Z,29.67
2022-12-09T04:29:13.180Z,32.87
2022-12-09T04:31:39.735Z,38.73
2022-12-09T04:34:09.542Z,33.70
2022-12-09T04:36:37.260Z,35.93
2022-12-09T04:39:04.238Z,35.63
2022-12-09T04:41:31.022Z,35.00
2022-12-09T04:43:57.690Z,37.63
2022-12-09T04:46:24.663Z,38.27
2022-12-09T04:48:52.748Z,31.57
2022-12-09T04:51:19.540Z,35.83
2022-12-09T04:53:46.383Z,33.40
2022-12-09T04:56:16.532Z,32.97
2022-12-09T04:58:44.918Z,39.50
2022-12-09T05:01:18.467Z,35.50
2022-12-09T05:03:53.237Z,42.03
2022-12-09T05:06:22.115Z,37.33
2022-12-09T05:08:49.348Z,39.07
2022-12-09T05:11:17.209Z,37.07
2022-12-09T05:13:44.788Z,38.97
2022-12-09T05:16:16.338Z,37.27
2022-12-09T05:18:44.184Z,35.07
2022-12-09T05:21:15.373Z,39.27
2022-12-09T05:23:42.375Z,45.53
2022-12-09T05:26:11.927Z,40.70
2022-12-09T05:28:38.931Z,33.90
2022-12-09T05:31:13.231Z,40.10
2022-12-09T05:33:40.059Z,38.10
2022-12-09T05:36:15.705Z,39.47
2022-12-09T05:38:43.068Z,37.97
2022-12-09T05:41:10.410Z,38.63
2022-12-09T05:43:37.724Z,37.53
2022-12-09T05:46:05.671Z,39.83
2022-12-09T05:48:32.790Z,37.50
2022-12-09T05:51:01.981Z,43.20
2022-12-09T05:53:29.162Z,40.80
2022-12-09T05:55:56.506Z,40.13
2022-12-09T05:58:23.496Z,37.40
2022-12-09T06:00:50.317Z,38.73
2022-12-09T06:03:17.053Z,36.70
2022-12-09T06:05:44.241Z,40.87
2022-12-09T06:08:11.371Z,41.67
2022-12-09T06:10:41.554Z,38.70
2022-12-09T06:13:08.827Z,40.50
2022-12-09T06:15:36.007Z,32.80
2022-12-09T06:18:03.061Z,38.10
2022-12-09T06:20:29.972Z,34.37
2022-12-09T06:22:57.106Z,32.40
2022-12-09T06:25:24.028Z,34.50
2022-12-09T06:27:52.103Z,38.73
2022-12-09T06:30:19.761Z,38.53
2022-12-09T06:32:46.782Z,39.53
2022-12-09T06:35:14.083Z,38.70
2022-12-09T06:37:41.772Z,37.87
2022-12-09T06:40:09.307Z,40.10
2022-12-09T06:42:36.332Z,37.10
2022-12-09T06:45:03.920Z,42.33
2022-12-09T06:47:30.624Z,35.47
2022-12-09T06:50:02.682Z,32.57
2022-12-09T06:52:32.935Z,39.30
2022-12-09T06:54:59.946Z,37.90
2022-12-09T06:57:26.879Z,40.00
2022-12-09T06:59:53.856Z,38.90
2022-12-09T07:02:20.732Z,39.90
2022-12-09T07:04:53.188Z,37.47
2022-12-09T07:07:20.251Z,37.93
2022-12-09T07:09:47.449Z,38.20
2022-12-09T07:12:14.840Z,39.73
2022-12-09T07:14:41.397Z,38.13
2022-12-09T07:17:11.254Z,36.03
2022-12-09T07:19:38.142Z,35.53
2022-12-09T07:22:04.967Z,42.87
2022-12-09T07:24:32.205Z,39.03
2022-12-09T07:27:04.608Z,45.07
2022-12-09T07:29:35.959Z,35.13
2022-12-09T07:32:03.943Z,36.97
2022-12-09T07:34:30.859Z,31.33
2022-12-09T07:36:57.438Z,37.57
2022-12-09T07:39:25.227Z,34.80
2022-12-09T07:41:56.985Z,37.87
2022-12-09T07:44:24.822Z,36.37
2022-12-09T07:46:52.152Z,36.37
2022-12-09T07:49:19.274Z,35.43
2022-12-09T07:51:45.992Z,35.20
2022-12-09T07:54:14.575Z,36.40
2022-12-09T07:56:41.513Z,31.20
2022-12-09T07:59:09.075Z,33.60
2022-12-09T08:01:36.405Z,34.40
2022-12-09T08:04:05.471Z,36.03
2022-12-09T08:06:33.167Z,40.50
2022-12-09T08:09:01.852Z,35.83
2022-12-09T08:11:30.352Z,39.53
2022-12-09T08:13:58.938Z,33.43
2022-12-09T08:16:26.670Z,35.90
2022-12-09T08:18:54.608Z,37.03
2022-12-09T08:21:24.223Z,33.10
2022-12-09T08:23:52.214Z,31.90
2022-12-09T08:26:22.285Z,32.53
2022-12-09T08:28:49.675Z,32.30
2022-12-09T08:31:21.149Z,34.17
2022-12-09T08:33:49.029Z,33.80
2022-12-09T08:36:20.625Z,36.33
2022-12-09T08:38:48.111Z,32.53
2022-12-09T08:41:17.593Z,35.73
2022-12-09T08:43:45.043Z,28.30
2022-12-09T08:46:12.857Z,29.87
2022-12-09T08:48:41.630Z,33.80
2022-12-09T08:51:09.985Z,33.90
2022-12-09T08:53:37.048Z,30.77
2022-12-09T08:56:15.054Z,31.10
2022-12-09T08:58:43.121Z,32.33
2022-12-09T09:01:18.158Z,34.97
2022-12-09T09:03:46.049Z,28.13
2022-12-09T09:06:14.353Z,29.80
2022-12-09T09:08:41.580Z,32.93
2022-12-09T09:11:12.734Z,30.10
2022-12-09T09:13:41.613Z,33.07
2022-12-09T09:16:11.352Z,33.53
2022-12-09T09:18:38.551Z,28.40
2022-12-09T09:21:07.661Z,30.90
2022-12-09T09:23:34.714Z,30.70
2022-12-09T09:26:01.833Z,31.77
2022-12-09T09:28:31.556Z,27.60
2022-12-09T09:31:00.823Z,29.10
2022-12-09T09:33:28.318Z,28.03
2022-12-09T09:36:05.493Z,29.17
2022-12-09T09:38:35.338Z,31.57
2022-12-09T09:41:02.064Z,34.30
2022-12-09T09:43:34.341Z,31.60
2022-12-09T09:46:01.294Z,30.33
2022-12-09T09:48:32.785Z,28.63
2022-12-09T09:51:02.411Z,26.17
2022-12-09T09:53:34.219Z,27.50
2022-12-09T09:56:43.819Z,26.00
2022-12-09T10:00:11.317Z,28.87
2022-12-09T10:03:44.918Z,30.50
2022-12-09T10:06:52.115Z,31.63
2022-12-09T10:09:22.872Z,24.67
2022-12-09T10:11:52.998Z,30.10
2022-12-09T10:14:34.194Z,34.57
2022-12-09T10:17:28.560Z,34.03
2022-12-09T10:20:03.642Z,33.67
2022-12-09T10:22:39.828Z,37.73
2022-12-09T10:25:17.976Z,34.77
2022-12-09T10:28:02.351Z,33.17
2022-12-09T10:30:36.218Z,29.93
2022-12-09T10:33:06.822Z,31.67
2022-12-09T10:35:35.072Z,32.23
2022-12-09T10:38:09.036Z,31.67
2022-12-09T10:40:49.886Z,30.77
2022-12-09T10:43:39.576Z,27.97
2022-12-09T10:46:18.577Z,31.80
2022-12-09T10:48:46.339Z,25.83
2022-12-09T10:51:19.686Z,23.40
2022-12-09T10:54:12.160Z,22.30
2022-12-09T10:57:20.826Z,22.50
2022-12-09T11:00:21.671Z,22.50
2022-12-09T11:02:55.584Z,21.53
2022-12-09T11:05:23.134Z,23.33
2022-12-09T11:07:51.699Z,22.60
2022-12-09T11:10:22.581Z,21.30
2022-12-09T11:12:52.753Z,23.83
2022-12-09T11:15:30.464Z,22.03
2022-12-09T11:18:04.312Z,23.33
2022-12-09T11:20:32.762Z,21.57
2022-12-09T11:22:59.959Z,21.67
2022-12-09T11:25:30.353Z,19.97
2022-12-09T11:28:23.838Z,22.17
2022-12-09T11:31:20.487Z,21.80
2022-12-09T11:33:48.544Z,22.47
2022-12-09T11:36:32.646Z,21.83
2022-12-09T11:39:23.340Z,26.30
2022-12-09T11:42:20.842Z,25.63
2022-12-09T11:44:56.898Z,25.80
2022-12-09T11:50:34.650Z,25.03
2022-12-09T11:53:07.030Z,23.47
2022-12-09T11:55:34.481Z,23.00
2022-12-09T11:58:06.820Z,24.17
2022-12-09T12:00:49.141Z,25.70
2022-12-09T12:03:26.081Z,22.53
2022-12-09T12:05:55.021Z,29.63
2022-12-09T12:08:30.844Z,29.77
2022-12-09T12:10:58.380Z,22.13
2022-12-09T12:13:32.164Z,25.57
2022-12-09T12:16:12.983Z,21.53
2022-12-09T12:19:07.376Z,26.30
2022-12-09T12:22:14.365Z,24.33
2022-12-09T12:24:56.337Z,24.90
2022-12-09T12:27:47.462Z,26.77
2022-12-09T12:30:20.689Z,31.03
2022-12-09T12:36:09.301Z,31.47
2022-12-09T12:38:57.686Z,30.67
2022-12-09T12:41:43.240Z,26.43
2022-12-09T12:44:43.813Z,28.87
2022-12-09T12:47:24.158Z,28.73
2022-12-09T12:49:50.773Z,30.63
2022-12-09T12:52:54.275Z,34.00
2022-12-09T12:55:21.547Z,31.97
2022-12-09T12:58:10.084Z,30.17
2022-12-09T13:01:14.398Z,30.30
2022-12-09T13:03:47.533Z,41.37
2022-12-09T13:06:16.830Z,35.80
2022-12-09T13:08:50.802Z,41.10
2022-12-09T13:11:21.808Z,33.50
2022-12-09T13:13:56.018Z,46.93
2022-12-09T13:16:35.520Z,56.93
2022-12-09T13:19:26.276Z,39.43
2022-12-09T13:21:53.065Z,52.67
2022-12-09T13:24:27.071Z,33.77
2022-12-09T13:27:03.647Z,49.17
2022-12-09T13:29:37.874Z,38.20
2022-12-09T13:32:28.453Z,46.43
2022-12-09T13:35:01.777Z,43.47
2022-12-09T13:37:34.757Z,56.77
2022-12-09T13:40:02.613Z,63.13
2022-12-09T13:42:47.779Z,45.77
2022-12-09T13:45:20.415Z,61.03
2022-12-09T13:47:47.471Z,64.13
2022-12-09T13:50:29.387Z,48.30
2022-12-09T13:52:58.763Z,55.30
2022-12-09T13:55:30.346Z,53.63
2022-12-09T13:58:30.591Z,53.13
2022-12-09T14:01:12.384Z,55.43
2022-12-09T14:03:54.646Z,57.80
2022-12-09T14:06:26.405Z,48.53
2022-12-09T14:08:57.750Z,51.00
2022-12-09T14:11:41.458Z,46.20
2022-12-09T14:14:23.323Z,48.67
2022-12-09T14:17:03.427Z,52.60
2022-12-09T14:19:48.392Z,52.37
2022-12-09T14:22:22.173Z,48.83
2022-12-09T14:24:58.601Z,45.87
2022-12-09T14:27:29.461Z,45.27
2022-12-09T14:30:23.781Z,50.57
2022-12-09T14:32:50.304Z,48.30
2022-12-09T14:35:46.928Z,45.63
2022-12-09T14:38:23.629Z,47.37
2022-12-09T14:40:50.157Z,42.63
2022-12-09T14:43:36.248Z,52.10
2022-12-09T14:46:05.231Z,49.60
2022-12-09T14:48:36.811Z,47.63
2022-12-09T14:51:17.611Z,43.87
2022-12-09T14:53:49.645Z,47.63
2022-12-09T14:56:18.237Z,53.03
2022-12-09T14:58:49.378Z,54.70
2022-12-09T15:01:18.136Z,52.47
2022-12-09T15:03:56.436Z,49.00
2022-12-09T15:06:26.812Z,44.10
2022-12-09T15:08:56.421Z,46.77
2022-12-09T15:11:29.185Z,49.27
2022-12-09T15:14:17.292Z,47.40
2022-12-09T15:16:47.702Z,45.67
2022-12-09T15:19:51.108Z,41.93
2022-12-09T15:22:06.956Z,55.40
2022-12-09T15:24:49.199Z,48.43
2022-12-09T15:27:19.134Z,46.77
2022-12-09T15:29:45.876Z,45.83
2022-12-09T15:32:28.679Z,50.87
2022-12-09T15:34:55.541Z,54.37
2022-12-09T15:37:26.296Z,53.50
2022-12-09T15:40:00.967Z,56.43
2022-12-09T15:42:29.752Z,46.20
2022-12-09T15:44:56.211Z,47.00
2022-12-09T15:47:37.090Z,50.30
2022-12-09T15:50:21.234Z,46.20
2022-12-09T15:52:58.464Z,47.10
2022-12-09T15:55:30.486Z,56.83
2022-12-09T15:57:58.772Z,67.40
2022-12-09T16:00:25.564Z,63.93
2022-12-09T16:02:52.439Z,46.80
2022-12-09T16:05:28.165Z,52.83
2022-12-09T16:08:00.005Z,46.90
2022-12-09T16:10:27.825Z,42.47
2022-12-09T16:13:10.509Z,51.70
2022-12-09T16:15:59.050Z,47.93
2022-12-09T16:18:30.158Z,39.87
2022-12-09T16:21:25.920Z,43.00
2022-12-09T16:23:55.415Z,40.37
2022-12-09T16:26:34.728Z,41.80
2022-12-09T16:29:03.808Z,45.63
2022-12-09T16:31:30.667Z,44.53
2022-12-09T16:33:57.634Z,47.47
2022-12-09T16:36:27.331Z,46.57
2022-12-09T16:39:22.601Z,50.50
2022-12-09T16:41:56.230Z,56.50
2022-12-09T16:44:35.179Z,47.73
2022-12-09T16:47:24.230Z,48.53
2022-12-09T16:49:50.784Z,77.33
2022-12-09T16:52:20.978Z,85.17
2022-12-09T16:54:48.733Z,126.30
2022-12-09T16:57:16.879Z,122.33
2022-12-09T16:59:43.915Z,98.67
2022-12-09T17:02:38.384Z,68.73
2022-12-09T17:05:06.136Z,64.30
2022-12-09T17:07:33.088Z,90.53
2022-12-09T17:09:59.590Z,53.97
2022-12-09T17:12:26.256Z,154.23
2022-12-09T17:14:52.784Z,76.63
2022-12-09T17:17:19.404Z,56.63
2022-12-09T17:19:46.165Z,58.47
2022-12-09T17:22:12.830Z,46.90
2022-12-09T17:24:39.793Z,59.47
2022-12-09T17:27:06.308Z,99.07
2022-12-09T17:29:32.781Z,47.07
2022-12-09T17:32:00.239Z,102.17
2022-12-09T17:34:27.052Z,67.77
2022-12-09T17:36:54.926Z,41.83
2022-12-09T17:39:23.987Z,46.00
2022-12-09T17:41:51.102Z,40.10
2022-12-09T17:44:17.851Z,35.53
2022-12-09T17:46:44.332Z,39.97
2022-12-09T17:49:10.873Z,40.07
2022-12-09T17:51:37.363Z,39.77
2022-12-09T17:54:04.433Z,45.40
2022-12-09T17:56:31.151Z,43.90
2022-12-09T17:59:00.853Z,34.97
2022-12-09T18:01:27.621Z,44.60
2022-12-09T18:04:02.639Z,44.80
2022-12-09T18:06:34.329Z,43.53
2022-12-09T18:09:01.977Z,39.97
2022-12-09T18:11:28.532Z,39.87
2022-12-09T18:13:55.408Z,51.77
2022-12-09T18:16:22.175Z,53.03
2022-12-09T18:18:48.919Z,39.33
2022-12-09T18:21:16.522Z,35.67
2022-12-09T18:23:43.465Z,44.80
2022-12-09T18:26:12.557Z,46.03
2022-12-09T18:28:39.448Z,38.67
2022-12-09T18:31:11.446Z,40.80
2022-12-09T18:33:38.523Z,43.40
2022-12-09T18:36:11.470Z,38.77
2022-12-09T18:38:38.661Z,35.90
2022-12-09T18:41:11.306Z,46.13
2022-12-09T18:43:40.365Z,47.60
2022-12-09T18:46:13.913Z,40.17
2022-12-09T18:48:41.011Z,43.10
2022-12-09T18:51:15.301Z,45.77
2022-12-09T18:53:41.962Z,43.90
2022-12-09T18:56:08.768Z,44.30
2022-12-09T18:59:04.305Z,46.83
2022-12-09T19:01:27.869Z,43.93
2022-12-09T19:03:56.853Z,53.40
2022-12-09T19:06:29.405Z,47.40
2022-12-09T19:08:57.934Z,70.53
2022-12-09T19:11:27.164Z,78.03
2022-12-09T19:13:54.264Z,85.10
2022-12-09T19:16:21.287Z,61.37
2022-12-09T19:18:48.157Z,82.00
2022-12-09T19:21:16.928Z,57.67
2022-12-09T19:23:44.644Z,43.30
2022-12-09T19:26:17.004Z,49.13
2022-12-09T19:28:48.465Z,50.83
2022-12-09T19:31:21.019Z,42.63
2022-12-09T19:33:47.644Z,42.50
2022-12-09T19:36:14.444Z,39.90
2022-12-09T19:38:41.494Z,49.07
2022-12-09T19:41:08.291Z,42.80
2022-12-09T19:43:34.946Z,41.20
2022-12-09T19:46:04.198Z,40.30
2022-12-09T19:48:30.686Z,40.93
2022-12-09T19:50:57.372Z,39.77
2022-12-09T19:53:23.888Z,45.43
2022-12-09T19:55:50.699Z,46.73
2022-12-09T19:58:17.396Z,46.57
2022-12-09T20:00:44.081Z,50.47
2022-12-09T20:03:10.686Z,50.17
2022-12-09T20:05:37.421Z,45.30
2022-12-09T20:08:04.263Z,40.53
2022-12-09T20:10:31.025Z,42.33
2022-12-09T20:12:58.652Z,45.30
2022-12-09T20:15:26.567Z,43.70
2022-12-09T20:17:53.060Z,42.40
2022-12-09T20:20:19.592Z,45.80
2022-12-09T20:22:46.120Z,45.40
2022-12-09T20:25:12.717Z,43.33
2022-12-09T20:27:39.555Z,42.47
2022-12-09T20:30:06.930Z,40.20
2022-12-09T20:32:33.746Z,53.77
2022-12-09T20:35:08.089Z,51.23
2022-12-09T20:37:34.990Z,47.33
2022-12-09T20:40:01.732Z,45.00
2022-12-09T20:42:28.349Z,51.17
2022-12-09T20:44:55.488Z,44.40
2022-12-09T20:47:22.030Z,44.07
2022-12-09T20:49:48.691Z,44.10
2022-12-09T20:52:15.260Z,45.47
2022-12-09T20:54:42.019Z,51.40
2022-12-09T20:57:08.586Z,52.90
2022-12-09T20:59:35.300Z,48.13
2022-12-09T21:02:01.871Z,47.70
2022-12-09T21:04:28.549Z,43.50
2022-12-09T21:06:55.237Z,46.00
2022-12-09T21:09:24.676Z,38.13
2022-12-09T21:11:51.288Z,48.53
2022-12-09T21:14:20.911Z,44.40
2022-12-09T21:16:50.327Z,48.03
2022-12-09T21:19:24.952Z,48.83
2022-12-09T21:21:52.513Z,44.13
2022-12-09T21:24:19.381Z,43.57
2022-12-09T21:26:48.743Z,50.03
2022-12-09T21:29:15.509Z,48.20
2022-12-09T21:31:42.397Z,46.90
2022-12-09T21:34:10.268Z,48.30
2022-12-09T21:36:39.391Z,38.43
2022-12-09T21:39:06.936Z,45.73
2022-12-09T21:41:34.499Z,41.77
2022-12-09T21:44:01.240Z,40.90
2022-12-09T21:46:33.561Z,41.50
2022-12-09T21:49:03.931Z,45.33
2022-12-09T21:51:32.021Z,48.23
2022-12-09T21:53:58.780Z,44.63
2022-12-09T21:56:27.764Z,45.60
2022-12-09T21:58:55.820Z,43.23
2022-12-09T22:01:25.934Z,44.17
2022-12-09T22:03:53.348Z,48.30
2022-12-09T22:06:20.467Z,47.90
2022-12-09T22:08:46.958Z,50.10
2022-12-09T22:11:14.761Z,45.67
2022-12-09T22:13:41.607Z,45.83
2022-12-09T22:16:16.814Z,49.80
2022-12-09T22:18:44.521Z,59.17
2022-12-09T22:21:24.570Z,50.30
2022-12-09T22:23:57.504Z,61.73
2022-12-09T22:26:26.009Z,51.03
2022-12-09T22:28:52.902Z,51.60
2022-12-09T22:31:22.541Z,53.57
2022-12-09T22:33:50.519Z,51.70
2022-12-09T22:36:17.657Z,54.13
2022-12-09T22:38:44.780Z,49.10
2022-12-09T22:41:16.731Z,53.67
2022-12-09T22:43:43.497Z,54.57
2022-12-09T22:46:11.349Z,50.20
2022-12-09T22:48:38.826Z,58.03
2022-12-09T22:51:11.232Z,51.83
2022-12-09T22:53:37.888Z,55.70
2022-12-09T22:56:05.108Z,54.87
2022-12-09T22:58:31.723Z,52.80
2022-12-09T23:00:58.232Z,52.10
2022-12-09T23:03:24.973Z,53.17
2022-12-09T23:05:51.737Z,51.50
2022-12-09T23:08:18.300Z,51.63
2022-12-09T23:10:44.864Z,57.17
2022-12-09T23:13:11.361Z,55.17
2022-12-09T23:15:38.464Z,53.97
2022-12-09T23:18:05.051Z,56.83
2022-12-09T23:20:32.315Z,51.83
2022-12-09T23:22:58.792Z,54.57
2022-12-09T23:25:25.484Z,52.00
2022-12-09T23:27:52.134Z,56.33
2022-12-09T23:30:18.720Z,56.63
2022-12-09T23:32:45.236Z,61.90
2022-12-09T23:35:11.723Z,62.53
2022-12-09T23:37:38.340Z,65.77
2022-12-09T23:40:05.541Z,61.57
2022-12-09T23:42:32.186Z,60.77
2022-12-09T23:44:58.656Z,63.17
2022-12-09T23:47:25.161Z,65.47
2022-12-09T23:49:52.038Z,61.33
2022-12-09T23:52:18.461Z,55.27
2022-12-09T23:54:45.182Z,65.87
2022-12-09T23:57:11.710Z,51.53
2022-12-09T23:59:38.483Z,58.17
